Wetterdaten: Woche 06.11.06 - 12.11.06 (KW45)
Datum Zeit Temperatur Luftfeuchte Luftdruck Niederschlag Wind Richtung Sonnenschein UV-Strahlung Solar Taupunkt Windchill Windben
06.11.2006 00:00 0.4 C 97 % 1032.3 hPa 0.0 l/m 1.0 km/h (0 Bft) O-SO 0.00 h 0.0 UV-I 0 W/m 0.0 C 0.4 C 2.0 km/h (1 Bft)
06.11.2006 01:00 0.0 C 98 % 1032.3 hPa 0.0 l/m 0.2 km/h (0 Bft) O-SO 0.00 h 0.0 UV-I 0 W/m -0.3 C 0.0 C 0.7 km/h (0 Bft)
06.11.2006 02:00 -0.2 C 99 % 1032.1 hPa 0.0 l/m 0.1 km/h (0 Bft) O-SO 0.00 h 0.0 UV-I 0 W/m -0.4 C -0.2 C 0.6 km/h (0 Bft)
06.11.2006 03:00 -0.0 C 100 % 1032.3 hPa 0.0 l/m 0.7 km/h (0 Bft) O-SO 0.00 h 0.0 UV-I 0 W/m -0.0 C -0.0 C 1.5 km/h (1 Bft)
06.11.2006 04:00 0.0 C 100 % 1032.6 hPa 0.0 l/m 0.7 km/h (0 Bft) O-SO 0.00 h 0.0 UV-I 0 W/m 0.0 C 0.0 C 2.0 km/h (1 Bft)
06.11.2006 05:00 -0.2 C 100 % 1032.5 hPa 0.0 l/m 2.0 km/h (1 Bft) O-SO 0.00 h 0.0 UV-I 0 W/m -0.2 C -0.3 C 3.5 km/h (1 Bft)
06.11.2006 06:00 -0.6 C 100 % 1032.7 hPa 0.0 l/m 1.2 km/h (1 Bft) O-SO 0.00 h 0.0 UV-I 0 W/m -0.6 C -0.6 C 2.5 km/h (1 Bft)
06.11.2006 07:00 -0.8 C 100 % 1032.9 hPa 0.0 l/m 0.7 km/h (0 Bft) O-SO 0.00 h 0.0 UV-I 16 W/m -0.8 C -0.8 C 1.9 km/h (1 Bft)
06.11.2006 08:00 -0.9 C 100 % 1033.2 hPa 0.0 l/m 1.2 km/h (1 Bft) O-SO 0.00 h 0.5 UV-I 60 W/m -0.9 C -0.9 C 2.7 km/h (1 Bft)
06.11.2006 09:00 -0.3 C 100 % 1033.2 hPa 0.2 l/m 1.1 km/h (1 Bft) O-SO 0.00 h 0.6 UV-I 98 W/m -0.3 C -0.3 C 2.6 km/h (1 Bft)
06.11.2006 10:00 0.6 C 100 % 1033.0 hPa 0.0 l/m 1.2 km/h (1 Bft) O-SO 0.00 h 0.9 UV-I 144 W/m 0.6 C 0.6 C 2.9 km/h (1 Bft)
06.11.2006 11:00 2.2 C 100 % 1032.5 hPa 0.0 l/m 0.9 km/h (0 Bft) SO 0.05 h 1.2 UV-I 189 W/m 2.2 C 2.1 C 2.5 km/h (1 Bft)
06.11.2006 12:00 4.2 C 97 % 1031.6 hPa 0.0 l/m 0.9 km/h (0 Bft) W 0.87 h 1.8 UV-I 313 W/m 3.8 C 4.2 C 2.4 km/h (1 Bft)
06.11.2006 13:00 6.9 C 81 % 1030.7 hPa 0.0 l/m 0.7 km/h (0 Bft) W-NW 0.93 h 1.6 UV-I 304 W/m 3.8 C 6.9 C 2.3 km/h (1 Bft)
06.11.2006 14:00 9.1 C 71 % 1029.8 hPa 0.0 l/m 1.7 km/h (1 Bft) W 0.77 h 1.1 UV-I 259 W/m 4.1 C 9.1 C 3.4 km/h (1 Bft)
06.11.2006 15:00 9.2 C 70 % 1029.6 hPa 0.0 l/m 0.3 km/h (0 Bft) NW 0.63 h 0.6 UV-I 125 W/m 4.1 C 9.2 C 0.9 km/h (0 Bft)
06.11.2006 16:00 8.2 C 78 % 1029.4 hPa 0.0 l/m 0.0 km/h (0 Bft) N 0.10 h 0.0 UV-I 37 W/m 4.5 C 8.2 C 0.0 km/h (0 Bft)
06.11.2006 17:00 6.0 C 86 % 1029.5 hPa 0.0 l/m 1.1 km/h (0 Bft) O-NO 0.00 h 0.0 UV-I 6 W/m 3.9 C 6.0 C 2.2 km/h (1 Bft)
06.11.2006 18:00 4.4 C 91 % 1029.6 hPa 0.0 l/m 0.9 km/h (0 Bft) O-NO 0.00 h 0.0 UV-I 0 W/m 3.1 C 4.4 C 1.6 km/h (1 Bft)
06.11.2006 19:00 3.5 C 94 % 1029.8 hPa 0.0 l/m 0.0 km/h (0 Bft) N 0.00 h 0.0 UV-I 0 W/m 2.7 C 3.5 C 0.1 km/h (0 Bft)
06.11.2006 20:00 3.0 C 96 % 1030.0 hPa 0.0 l/m 1.2 km/h (1 Bft) O 0.00 h 0.0 UV-I 0 W/m 2.4 C 3.0 C 2.3 km/h (1 Bft)
06.11.2006 21:00 2.8 C 95 % 1029.9 hPa 0.0 l/m 0.9 km/h (0 Bft) O 0.00 h 0.0 UV-I 0 W/m 2.2 C 2.8 C 1.8 km/h (1 Bft)
06.11.2006 22:00 2.5 C 96 % 1029.4 hPa 0.0 l/m 0.5 km/h (0 Bft) O 0.00 h 0.0 UV-I 0 W/m 2.0 C 2.5 C 1.1 km/h (0 Bft)
06.11.2006 23:00 1.9 C 98 % 1029.3 hPa 0.0 l/m 0.7 km/h (0 Bft) O 0.00 h 0.0 UV-I 0 W/m 1.6 C 1.9 C 1.4 km/h (1 Bft)
07.11.2006 00:00 1.3 C 98 % 1029.0 hPa 0.0 l/m 0.7 km/h (0 Bft) O 0.00 h 0.0 UV-I 0 W/m 1.0 C 1.3 C 1.2 km/h (1 Bft)
07.11.2006 01:00 0.7 C 99 % 1028.7 hPa 0.0 l/m 0.6 km/h (0 Bft) O 0.00 h 0.0 UV-I 0 W/m 0.6 C 0.6 C 1.1 km/h (1 Bft)
07.11.2006 02:00 0.0 C 100 % 1028.4 hPa 0.0 l/m 0.4 km/h (0 Bft) O 0.00 h 0.0 UV-I 0 W/m -0.0 C 0.0 C 0.9 km/h (0 Bft)
07.11.2006 03:00 -0.8 C 100 % 1028.1 hPa 0.0 l/m 0.8 km/h (0 Bft) O-SO 0.00 h 0.0 UV-I 0 W/m -0.8 C -0.8 C 2.0 km/h (1 Bft)
07.11.2006 04:00 -0.9 C 100 % 1027.9 hPa 0.0 l/m 1.9 km/h (1 Bft) O-SO 0.00 h 0.0 UV-I 0 W/m -0.9 C -0.9 C 3.5 km/h (1 Bft)
07.11.2006 05:00 -0.4 C 100 % 1027.9 hPa 0.0 l/m 1.4 km/h (1 Bft) O-SO 0.00 h 0.0 UV-I 0 W/m -0.4 C -0.5 C 2.7 km/h (1 Bft)
07.11.2006 06:00 -0.3 C 100 % 1027.7 hPa 0.0 l/m 0.4 km/h (0 Bft) O-SO 0.00 h 0.0 UV-I 0 W/m -0.3 C -0.3 C 1.4 km/h (1 Bft)
07.11.2006 07:00 -0.5 C 99 % 1027.9 hPa 0.0 l/m 1.9 km/h (1 Bft) SO 0.00 h 0.0 UV-I 15 W/m -0.5 C -0.5 C 3.6 km/h (1 Bft)
07.11.2006 08:00 -0.5 C 100 % 1028.1 hPa 0.0 l/m 1.7 km/h (1 Bft) O-SO 0.00 h 0.5 UV-I 48 W/m -0.6 C -0.5 C 3.3 km/h (1 Bft)
07.11.2006 09:00 -0.0 C 100 % 1028.3 hPa 0.0 l/m 2.7 km/h (1 Bft) O-SO 0.00 h 0.6 UV-I 97 W/m -0.0 C -0.4 C 4.9 km/h (1 Bft)
07.11.2006 10:00 1.7 C 100 % 1028.2 hPa 0.0 l/m 1.7 km/h (1 Bft) O-SO 0.02 h 1.0 UV-I 160 W/m 1.7 C 1.5 C 3.5 km/h (1 Bft)
07.11.2006 11:00 3.8 C 100 % 1027.9 hPa 0.0 l/m 1.4 km/h (1 Bft) S-SO 0.85 h 1.7 UV-I 330 W/m 3.8 C 3.8 C 3.6 km/h (1 Bft)
07.11.2006 12:00 7.1 C 85 % 1026.9 hPa 0.0 l/m 1.2 km/h (1 Bft) O-SO 1.00 h 1.9 UV-I 379 W/m 4.7 C 7.0 C 3.2 km/h (1 Bft)
07.11.2006 13:00 9.9 C 71 % 1025.9 hPa 0.0 l/m 1.2 km/h (1 Bft) N-NO 1.00 h 1.6 UV-I 344 W/m 5.0 C 9.9 C 2.7 km/h (1 Bft)
07.11.2006 14:00 11.4 C 64 % 1025.0 hPa 0.0 l/m 0.7 km/h (0 Bft) SW 0.65 h 1.0 UV-I 208 W/m 4.9 C 11.4 C 2.3 km/h (1 Bft)
07.11.2006 15:00 11.0 C 68 % 1024.7 hPa 0.0 l/m 0.3 km/h (0 Bft) W-SW 0.52 h 0.6 UV-I 125 W/m 5.3 C 11.0 C 1.1 km/h (1 Bft)
07.11.2006 16:00 9.5 C 76 % 1024.4 hPa 0.0 l/m 0.1 km/h (0 Bft) NW 0.00 h 0.0 UV-I 29 W/m 5.5 C 9.5 C 0.5 km/h (0 Bft)
07.11.2006 17:00 7.5 C 82 % 1024.4 hPa 0.0 l/m 0.9 km/h (0 Bft) O 0.00 h 0.0 UV-I 0 W/m 4.6 C 7.5 C 1.4 km/h (1 Bft)
07.11.2006 18:00 5.8 C 88 % 1024.7 hPa 0.0 l/m 1.5 km/h (1 Bft) O-SO 0.00 h 0.0 UV-I 0 W/m 4.0 C 5.7 C 2.6 km/h (1 Bft)
07.11.2006 19:00 4.7 C 91 % 1025.1 hPa 0.0 l/m 2.1 km/h (1 Bft) O 0.00 h 0.0 UV-I 0 W/m 3.3 C 4.7 C 3.2 km/h (1 Bft)
07.11.2006 20:00 3.7 C 93 % 1025.5 hPa 0.0 l/m 2.4 km/h (1 Bft) O-SO 0.00 h 0.0 UV-I 0 W/m 2.7 C 3.5 C 3.4 km/h (1 Bft)
07.11.2006 21:00 3.2 C 94 % 1025.9 hPa 0.0 l/m 2.2 km/h (1 Bft) O-SO 0.00 h 0.0 UV-I 0 W/m 2.3 C 3.1 C 3.4 km/h (1 Bft)
07.11.2006 22:00 2.4 C 96 % 1026.0 hPa 0.0 l/m 0.0 km/h (0 Bft) O-SO 0.00 h 0.0 UV-I 0 W/m 1.8 C 2.4 C 0.2 km/h (0 Bft)
07.11.2006 23:00 1.8 C 98 % 1026.0 hPa 0.0 l/m 0.7 km/h (0 Bft) O-SO 0.00 h 0.0 UV-I 0 W/m 1.5 C 1.7 C 1.4 km/h (1 Bft)
08.11.2006 00:00 1.3 C 99 % 1026.2 hPa 0.0 l/m 0.3 km/h (0 Bft) O-SO 0.00 h 0.0 UV-I 0 W/m 1.1 C 1.3 C 1.2 km/h (1 Bft)
08.11.2006 01:00 1.1 C 99 % 1026.3 hPa 0.2 l/m 1.0 km/h (0 Bft) O-SO 0.00 h 0.0 UV-I 0 W/m 1.0 C 1.0 C 1.6 km/h (1 Bft)
08.11.2006 02:00 0.4 C 99 % 1026.5 hPa 0.0 l/m 0.7 km/h (0 Bft) O-SO 0.00 h 0.0 UV-I 0 W/m 0.3 C 0.4 C 1.3 km/h (1 Bft)
08.11.2006 03:00 0.5 C 99 % 1026.4 hPa 0.0 l/m 0.1 km/h (0 Bft) O-SO 0.00 h 0.0 UV-I 0 W/m 0.4 C 0.5 C 0.4 km/h (0 Bft)
08.11.2006 04:00 0.1 C 99 % 1027.0 hPa 0.0 l/m 0.1 km/h (0 Bft) O-SO 0.00 h 0.0 UV-I 0 W/m 0.0 C 0.1 C 0.7 km/h (0 Bft)
08.11.2006 05:00 0.8 C 100 % 1027.2 hPa 0.0 l/m 0.3 km/h (0 Bft) O 0.00 h 0.0 UV-I 0 W/m 0.8 C 0.8 C 1.1 km/h (1 Bft)
08.11.2006 06:00 0.8 C 100 % 1027.6 hPa 0.0 l/m 0.0 km/h (0 Bft) NO 0.00 h 0.0 UV-I 0 W/m 0.8 C 0.8 C 0.4 km/h (0 Bft)
08.11.2006 07:00 0.6 C 100 % 1028.1 hPa 0.0 l/m 0.0 km/h (0 Bft) NO 0.00 h 0.0 UV-I 13 W/m 0.6 C 0.6 C 0.4 km/h (0 Bft)
08.11.2006 08:00 1.1 C 100 % 1028.6 hPa 0.0 l/m 0.1 km/h (0 Bft) NO 0.00 h 0.5 UV-I 61 W/m 1.1 C 1.1 C 0.7 km/h (0 Bft)
08.11.2006 09:00 2.2 C 100 % 1028.9 hPa 0.0 l/m 0.3 km/h (0 Bft) N-NO 0.07 h 0.6 UV-I 118 W/m 2.2 C 2.2 C 1.3 km/h (1 Bft)
08.11.2006 10:00 3.9 C 100 % 1028.9 hPa 0.0 l/m 1.7 km/h (1 Bft) N-NW 0.38 h 1.1 UV-I 185 W/m 3.9 C 3.8 C 3.6 km/h (1 Bft)
08.11.2006 11:00 7.6 C 93 % 1028.8 hPa 0.0 l/m 0.1 km/h (0 Bft) O-SO 0.88 h 1.6 UV-I 321 W/m 6.6 C 7.6 C 0.9 km/h (0 Bft)
08.11.2006 12:00 12.8 C 73 % 1027.8 hPa 0.0 l/m 2.2 km/h (1 Bft) W 1.00 h 1.8 UV-I 392 W/m 8.1 C 12.8 C 5.2 km/h (1 Bft)
08.11.2006 13:00 13.4 C 71 % 1027.4 hPa 0.0 l/m 2.4 km/h (1 Bft) W 0.22 h 1.1 UV-I 176 W/m 8.2 C 13.4 C 5.3 km/h (1 Bft)
08.11.2006 14:00 12.6 C 75 % 1027.3 hPa 0.0 l/m 1.1 km/h (1 Bft) N 0.00 h 0.7 UV-I 117 W/m 8.2 C 12.6 C 2.6 km/h (1 Bft)
08.11.2006 15:00 12.4 C 77 % 1027.3 hPa 0.0 l/m 0.0 km/h (0 Bft) N 0.00 h 0.5 UV-I 42 W/m 8.4 C 12.4 C 0.4 km/h (0 Bft)
08.11.2006 16:00 11.7 C 80 % 1027.3 hPa 0.0 l/m 0.7 km/h (0 Bft) O 0.00 h 0.0 UV-I 11 W/m 8.4 C 11.7 C 1.4 km/h (1 Bft)
08.11.2006 17:00 10.4 C 88 % 1027.3 hPa 0.0 l/m 1.1 km/h (1 Bft) O-SO 0.00 h 0.0 UV-I 0 W/m 8.6 C 10.4 C 2.2 km/h (1 Bft)
08.11.2006 18:00 8.6 C 92 % 1027.9 hPa 0.0 l/m 1.6 km/h (1 Bft) O-SO 0.00 h 0.0 UV-I 0 W/m 7.4 C 8.6 C 2.6 km/h (1 Bft)
08.11.2006 19:00 8.3 C 91 % 1028.3 hPa 0.0 l/m 2.6 km/h (1 Bft) O-SO 0.00 h 0.0 UV-I 0 W/m 6.9 C 8.1 C 3.9 km/h (1 Bft)
08.11.2006 20:00 6.9 C 95 % 1028.7 hPa 0.0 l/m 0.7 km/h (0 Bft) O-SO 0.00 h 0.0 UV-I 0 W/m 6.2 C 6.9 C 1.4 km/h (1 Bft)
08.11.2006 21:00 6.5 C 97 % 1028.8 hPa 0.0 l/m 0.6 km/h (0 Bft) O-SO 0.00 h 0.0 UV-I 0 W/m 6.0 C 6.5 C 1.6 km/h (1 Bft)
08.11.2006 22:00 5.5 C 98 % 1028.6 hPa 0.0 l/m 1.1 km/h (1 Bft) O-SO 0.00 h 0.0 UV-I 0 W/m 5.2 C 5.5 C 2.0 km/h (1 Bft)
08.11.2006 23:00 5.4 C 99 % 1028.2 hPa 0.0 l/m 0.4 km/h (0 Bft) O-SO 0.00 h 0.0 UV-I 0 W/m 5.2 C 5.4 C 0.8 km/h (0 Bft)
09.11.2006 00:00 5.4 C 100 % 1027.8 hPa 0.0 l/m 0.3 km/h (0 Bft) O-SO 0.00 h 0.0 UV-I 0 W/m 5.4 C 5.4 C 0.9 km/h (0 Bft)
09.11.2006 01:00 5.2 C 100 % 1027.5 hPa 0.0 l/m 0.3 km/h (0 Bft) O-SO 0.00 h 0.0 UV-I 0 W/m 5.2 C 5.2 C 0.6 km/h (0 Bft)
09.11.2006 02:00 5.8 C 100 % 1027.6 hPa 0.0 l/m 0.3 km/h (0 Bft) O-SO 0.00 h 0.0 UV-I 0 W/m 5.8 C 5.8 C 0.8 km/h (0 Bft)
09.11.2006 03:00 6.3 C 100 % 1027.5 hPa 0.2 l/m 0.4 km/h (0 Bft) O-SO 0.00 h 0.0 UV-I 0 W/m 6.3 C 6.3 C 0.9 km/h (0 Bft)
09.11.2006 04:00 6.9 C 100 % 1027.5 hPa 0.0 l/m 1.8 km/h (1 Bft) O-SO 0.00 h 0.0 UV-I 0 W/m 6.9 C 6.8 C 2.9 km/h (1 Bft)
09.11.2006 05:00 8.0 C 98 % 1027.4 hPa 0.0 l/m 1.7 km/h (1 Bft) S-SO 0.00 h 0.0 UV-I 0 W/m 7.6 C 7.9 C 3.0 km/h (1 Bft)
09.11.2006 06:00 7.9 C 97 % 1027.8 hPa 0.4 l/m 0.8 km/h (0 Bft) O 0.00 h 0.0 UV-I 0 W/m 7.4 C 7.9 C 1.9 km/h (1 Bft)
09.11.2006 07:00 9.7 C 96 % 1028.0 hPa 0.2 l/m 6.1 km/h (2 Bft) W 0.00 h 0.0 UV-I 9 W/m 9.1 C 9.4 C 10.9 km/h (2 Bft)
09.11.2006 08:00 10.9 C 91 % 1028.7 hPa 0.0 l/m 9.1 km/h (2 Bft) W 0.00 h 0.0 UV-I 24 W/m 9.5 C 10.9 C 15.4 km/h (3 Bft)
09.11.2006 09:00 11.5 C 89 % 1029.0 hPa 0.0 l/m 6.6 km/h (2 Bft) W-NW 0.00 h 0.0 UV-I 20 W/m 9.7 C 11.5 C 10.7 km/h (2 Bft)
09.11.2006 10:00 11.5 C 92 % 1029.2 hPa 0.2 l/m 9.6 km/h (2 Bft) W 0.00 h 0.7 UV-I 59 W/m 10.3 C 11.5 C 15.7 km/h (3 Bft)
09.11.2006 11:00 11.7 C 91 % 1029.6 hPa 0.0 l/m 8.7 km/h (2 Bft) W 0.00 h 0.7 UV-I 49 W/m 10.3 C 11.7 C 14.6 km/h (3 Bft)
09.11.2006 12:00 12.1 C 87 % 1029.4 hPa 0.0 l/m 11.0 km/h (2 Bft) W 0.00 h 0.9 UV-I 83 W/m 10.0 C 12.1 C 17.3 km/h (3 Bft)
09.11.2006 13:00 12.5 C 84 % 1029.4 hPa 0.0 l/m 8.6 km/h (2 Bft) W 0.00 h 0.9 UV-I 88 W/m 9.9 C 12.5 C 13.8 km/h (3 Bft)
09.11.2006 14:00 12.7 C 83 % 1029.1 hPa 0.0 l/m 6.9 km/h (2 Bft) W 0.00 h 0.8 UV-I 65 W/m 9.8 C 12.7 C 11.0 km/h (2 Bft)
09.11.2006 15:00 12.8 C 82 % 1029.2 hPa 0.0 l/m 8.0 km/h (2 Bft) W 0.07 h 0.6 UV-I 60 W/m 9.7 C 12.8 C 12.8 km/h (3 Bft)
09.11.2006 16:00 12.4 C 82 % 1029.4 hPa 0.0 l/m 8.8 km/h (2 Bft) W 0.00 h 0.0 UV-I 11 W/m 9.4 C 12.4 C 14.7 km/h (3 Bft)
09.11.2006 17:00 11.6 C 87 % 1029.7 hPa 0.0 l/m 5.5 km/h (1 Bft) W-NW 0.00 h 0.0 UV-I 0 W/m 9.4 C 11.6 C 9.2 km/h (2 Bft)
09.11.2006 18:00 10.8 C 89 % 1030.4 hPa 0.0 l/m 0.9 km/h (0 Bft) W 0.00 h 0.0 UV-I 0 W/m 9.1 C 10.8 C 2.6 km/h (1 Bft)
09.11.2006 19:00 9.6 C 92 % 1030.9 hPa 0.0 l/m 1.9 km/h (1 Bft) O 0.00 h 0.0 UV-I 0 W/m 8.3 C 9.5 C 3.5 km/h (1 Bft)
09.11.2006 20:00 9.6 C 92 % 1031.1 hPa 0.0 l/m 0.7 km/h (0 Bft) S-SO 0.00 h 0.0 UV-I 0 W/m 8.3 C 9.6 C 1.8 km/h (1 Bft)
09.11.2006 21:00 9.5 C 93 % 1031.3 hPa 0.0 l/m 1.3 km/h (1 Bft) O 0.00 h 0.0 UV-I 0 W/m 8.5 C 9.5 C 2.3 km/h (1 Bft)
09.11.2006 22:00 9.0 C 96 % 1031.7 hPa 0.0 l/m 0.5 km/h (0 Bft) O 0.00 h 0.0 UV-I 0 W/m 8.4 C 9.0 C 1.1 km/h (0 Bft)
09.11.2006 23:00 8.7 C 95 % 1032.1 hPa 0.0 l/m 0.4 km/h (0 Bft) O 0.00 h 0.0 UV-I 0 W/m 7.9 C 8.7 C 1.0 km/h (0 Bft)
10.11.2006 00:00 8.8 C 82 % 1033.0 hPa 0.0 l/m 1.2 km/h (1 Bft) N 0.00 h 0.0 UV-I 0 W/m 5.8 C 8.7 C 3.4 km/h (1 Bft)
10.11.2006 01:00 8.1 C 77 % 1033.0 hPa 0.0 l/m 0.9 km/h (0 Bft) SO 0.00 h 0.0 UV-I 0 W/m 4.4 C 8.1 C 3.2 km/h (1 Bft)
10.11.2006 02:00 7.9 C 75 % 1033.4 hPa 0.0 l/m 2.7 km/h (1 Bft) O 0.00 h 0.0 UV-I 0 W/m 3.8 C 7.8 C 6.0 km/h (2 Bft)
10.11.2006 03:00 7.2 C 77 % 1033.9 hPa 0.0 l/m 1.8 km/h (1 Bft) N-NO 0.00 h 0.0 UV-I 0 W/m 3.5 C 7.1 C 4.5 km/h (1 Bft)
10.11.2006 04:00 6.4 C 79 % 1034.7 hPa 0.0 l/m 3.2 km/h (1 Bft) N-NO 0.00 h 0.0 UV-I 0 W/m 3.0 C 6.1 C 6.8 km/h (2 Bft)
10.11.2006 05:00 5.8 C 80 % 1035.3 hPa 0.0 l/m 1.5 km/h (1 Bft) N-NO 0.00 h 0.0 UV-I 0 W/m 2.7 C 5.8 C 3.8 km/h (1 Bft)
10.11.2006 06:00 5.6 C 80 % 1035.7 hPa 0.0 l/m 2.2 km/h (1 Bft) NO 0.00 h 0.0 UV-I 0 W/m 2.5 C 5.4 C 5.0 km/h (1 Bft)
10.11.2006 07:00 4.9 C 81 % 1035.8 hPa 0.0 l/m 1.8 km/h (1 Bft) N 0.00 h 0.0 UV-I 12 W/m 2.0 C 4.8 C 4.1 km/h (1 Bft)
10.11.2006 08:00 4.5 C 82 % 1036.1 hPa 0.0 l/m 3.2 km/h (1 Bft) NO 0.02 h 0.5 UV-I 50 W/m 1.7 C 4.2 C 6.0 km/h (2 Bft)
10.11.2006 09:00 5.7 C 76 % 1036.3 hPa 0.0 l/m 1.9 km/h (1 Bft) O-SO 0.33 h 0.7 UV-I 157 W/m 1.9 C 5.6 C 4.4 km/h (1 Bft)
10.11.2006 10:00 6.9 C 73 % 1035.9 hPa 0.0 l/m 2.7 km/h (1 Bft) O 0.53 h 1.1 UV-I 206 W/m 2.3 C 6.7 C 6.0 km/h (2 Bft)
10.11.2006 11:00 8.5 C 67 % 1035.8 hPa 0.0 l/m 4.8 km/h (1 Bft) O-SO 0.98 h 1.4 UV-I 344 W/m 2.8 C 8.0 C 8.8 km/h (2 Bft)
10.11.2006 12:00 9.2 C 64 % 1035.2 hPa 0.0 l/m 6.5 km/h (2 Bft) O-SO 1.00 h 1.5 UV-I 355 W/m 2.8 C 8.4 C 11.3 km/h (2 Bft)
10.11.2006 13:00 9.8 C 61 % 1034.5 hPa 0.0 l/m 6.2 km/h (2 Bft) O-SO 0.98 h 1.3 UV-I 301 W/m 2.7 C 9.1 C 11.5 km/h (2 Bft)
10.11.2006 14:00 9.6 C 60 % 1033.9 hPa 0.0 l/m 11.4 km/h (2 Bft) O-SO 0.92 h 0.9 UV-I 227 W/m 2.3 C 8.0 C 18.2 km/h (3 Bft)
10.11.2006 15:00 9.4 C 59 % 1033.6 hPa 0.0 l/m 9.0 km/h (2 Bft) O-SO 0.78 h 0.6 UV-I 133 W/m 1.9 C 8.2 C 14.2 km/h (3 Bft)
10.11.2006 16:00 8.2 C 64 % 1033.3 hPa 0.0 l/m 0.9 km/h (0 Bft) O 0.03 h 0.0 UV-I 25 W/m 1.8 C 8.2 C 2.3 km/h (1 Bft)
10.11.2006 17:00 6.3 C 73 % 1033.1 hPa 0.0 l/m 1.7 km/h (1 Bft) O-SO 0.00 h 0.0 UV-I 0 W/m 1.7 C 6.2 C 3.1 km/h (1 Bft)
10.11.2006 18:00 4.7 C 80 % 1033.0 hPa 0.0 l/m 0.8 km/h (0 Bft) O-SO 0.00 h 0.0 UV-I 0 W/m 1.6 C 4.7 C 1.8 km/h (1 Bft)
10.11.2006 19:00 3.3 C 87 % 1032.6 hPa 0.0 l/m 0.5 km/h (0 Bft) O-SO 0.00 h 0.0 UV-I 0 W/m 1.4 C 3.3 C 1.2 km/h (1 Bft)
10.11.2006 20:00 2.9 C 89 % 1032.2 hPa 0.0 l/m 0.2 km/h (0 Bft) O-SO 0.00 h 0.0 UV-I 0 W/m 1.4 C 2.9 C 0.6 km/h (0 Bft)
10.11.2006 21:00 2.1 C 91 % 1031.9 hPa 0.0 l/m 1.7 km/h (1 Bft) O-SO 0.00 h 0.0 UV-I 0 W/m 0.8 C 2.1 C 3.1 km/h (1 Bft)
10.11.2006 22:00 1.5 C 92 % 1031.5 hPa 0.0 l/m 1.2 km/h (1 Bft) O 0.00 h 0.0 UV-I 0 W/m 0.3 C 1.5 C 2.0 km/h (1 Bft)
10.11.2006 23:00 1.0 C 94 % 1030.9 hPa 0.0 l/m 0.9 km/h (0 Bft) O 0.00 h 0.0 UV-I 0 W/m 0.1 C 1.0 C 1.4 km/h (1 Bft)
11.11.2006 00:00 0.5 C 95 % 1030.7 hPa 0.0 l/m 1.2 km/h (1 Bft) O 0.00 h 0.0 UV-I 0 W/m -0.2 C 0.5 C 2.2 km/h (1 Bft)
11.11.2006 01:00 0.4 C 96 % 1030.1 hPa 0.0 l/m 2.7 km/h (1 Bft) O 0.00 h 0.0 UV-I 0 W/m -0.3 C 0.2 C 4.0 km/h (1 Bft)
11.11.2006 02:00 0.1 C 96 % 1029.7 hPa 0.0 l/m 0.5 km/h (0 Bft) O 0.00 h 0.0 UV-I 0 W/m -0.5 C 0.1 C 0.9 km/h (0 Bft)
11.11.2006 03:00 0.2 C 97 % 1028.9 hPa 0.0 l/m 0.5 km/h (0 Bft) O 0.00 h 0.0 UV-I 0 W/m -0.3 C 0.2 C 1.1 km/h (1 Bft)
11.11.2006 04:00 0.1 C 97 % 1028.0 hPa 0.0 l/m 0.2 km/h (0 Bft) O 0.00 h 0.0 UV-I 0 W/m -0.3 C 0.1 C 0.7 km/h (0 Bft)
11.11.2006 05:00 0.0 C 98 % 1027.6 hPa 0.0 l/m 0.1 km/h (0 Bft) O 0.00 h 0.0 UV-I 0 W/m -0.3 C 0.0 C 0.7 km/h (0 Bft)
11.11.2006 06:00 -0.2 C 98 % 1027.0 hPa 0.0 l/m 0.0 km/h (0 Bft) N 0.00 h 0.0 UV-I 0 W/m -0.4 C -0.2 C 0.2 km/h (0 Bft)
11.11.2006 07:00 -0.1 C 99 % 1026.5 hPa 0.0 l/m 0.1 km/h (0 Bft) O 0.00 h 0.0 UV-I 13 W/m -0.3 C -0.1 C 0.5 km/h (0 Bft)
11.11.2006 08:00 0.4 C 99 % 1026.6 hPa 0.0 l/m 0.4 km/h (0 Bft) NO 0.00 h 0.5 UV-I 53 W/m 0.3 C 0.4 C 1.1 km/h (1 Bft)
11.11.2006 09:00 1.8 C 99 % 1026.3 hPa 0.2 l/m 0.4 km/h (0 Bft) NO 0.00 h 0.6 UV-I 96 W/m 1.6 C 1.8 C 1.1 km/h (1 Bft)
11.11.2006 10:00 3.7 C 94 % 1026.3 hPa 0.0 l/m 1.2 km/h (1 Bft) N-NO 0.00 h 0.8 UV-I 135 W/m 2.9 C 3.7 C 3.0 km/h (1 Bft)
11.11.2006 11:00 6.0 C 89 % 1026.3 hPa 0.0 l/m 4.5 km/h (1 Bft) W 0.00 h 0.7 UV-I 89 W/m 4.3 C 5.4 C 7.2 km/h (2 Bft)
11.11.2006 12:00 7.6 C 85 % 1025.4 hPa 0.6 l/m 13.1 km/h (3 Bft) W 0.00 h 0.6 UV-I 64 W/m 5.3 C 5.4 C 20.2 km/h (4 Bft)
11.11.2006 13:00 7.1 C 91 % 1024.7 hPa 0.6 l/m 5.1 km/h (1 Bft) S-SO 0.00 h 0.0 UV-I 33 W/m 5.8 C 6.4 C 9.1 km/h (2 Bft)
11.11.2006 14:00 6.9 C 94 % 1024.7 hPa 1.4 l/m 2.4 km/h (1 Bft) S-SO 0.00 h 0.0 UV-I 25 W/m 5.9 C 6.6 C 4.6 km/h (1 Bft)
11.11.2006 15:00 7.2 C 93 % 1024.5 hPa 0.2 l/m 3.8 km/h (1 Bft) S-SO 0.00 h 0.0 UV-I 10 W/m 6.1 C 6.9 C 6.4 km/h (2 Bft)
11.11.2006 16:00 7.0 C 96 % 1024.2 hPa 0.4 l/m 3.8 km/h (1 Bft) O-SO 0.00 h 0.0 UV-I 5 W/m 6.4 C 6.7 C 5.7 km/h (1 Bft)
11.11.2006 17:00 7.1 C 98 % 1024.0 hPa 0.6 l/m 0.8 km/h (0 Bft) O 0.00 h 0.0 UV-I 0 W/m 6.8 C 7.1 C 1.6 km/h (1 Bft)
11.11.2006 18:00 7.2 C 98 % 1023.9 hPa 0.2 l/m 0.2 km/h (0 Bft) O 0.00 h 0.0 UV-I 0 W/m 6.9 C 7.2 C 0.7 km/h (0 Bft)
11.11.2006 19:00 7.6 C 99 % 1023.4 hPa 1.2 l/m 0.7 km/h (0 Bft) O 0.00 h 0.0 UV-I 0 W/m 7.4 C 7.6 C 1.6 km/h (1 Bft)
11.11.2006 20:00 8.1 C 99 % 1022.8 hPa 1.2 l/m 1.3 km/h (1 Bft) S-SO 0.00 h 0.0 UV-I 0 W/m 7.9 C 8.1 C 2.9 km/h (1 Bft)
11.11.2006 21:00 8.6 C 99 % 1022.2 hPa 0.4 l/m 4.2 km/h (1 Bft) W-SW 0.00 h 0.0 UV-I 0 W/m 8.5 C 8.3 C 7.3 km/h (2 Bft)
11.11.2006 22:00 9.1 C 99 % 1021.6 hPa 0.4 l/m 8.3 km/h (2 Bft) W 0.00 h 0.0 UV-I 0 W/m 9.0 C 8.0 C 13.4 km/h (3 Bft)
11.11.2006 23:00 9.5 C 98 % 1020.9 hPa 0.2 l/m 9.0 km/h (2 Bft) W 0.00 h 0.0 UV-I 0 W/m 9.2 C 8.3 C 15.1 km/h (3 Bft)
12.11.2006 00:00 9.1 C 98 % 1020.3 hPa 1.2 l/m 4.9 km/h (1 Bft) SW 0.00 h 0.0 UV-I 0 W/m 8.9 C 8.7 C 9.4 km/h (2 Bft)
12.11.2006 01:00 9.8 C 95 % 1019.6 hPa 0.0 l/m 15.9 km/h (3 Bft) W 0.00 h 0.0 UV-I 0 W/m 9.0 C 8.8 C 25.6 km/h (4 Bft)
12.11.2006 02:00 9.9 C 91 % 1019.3 hPa 1.2 l/m 22.5 km/h (4 Bft) W 0.00 h 0.0 UV-I 0 W/m 8.6 C 8.2 C 34.7 km/h (5 Bft)
12.11.2006 03:00 9.6 C 88 % 1018.9 hPa 0.2 l/m 25.0 km/h (4 Bft) W 0.00 h 0.0 UV-I 0 W/m 7.7 C 6.6 C 38.7 km/h (5 Bft)
12.11.2006 04:00 9.6 C 86 % 1018.4 hPa 0.4 l/m 26.0 km/h (4 Bft) W 0.00 h 0.0 UV-I 0 W/m 7.3 C 6.3 C 39.5 km/h (6 Bft)
12.11.2006 05:00 9.3 C 87 % 1018.8 hPa 0.0 l/m 25.0 km/h (4 Bft) W 0.00 h 0.0 UV-I 0 W/m 7.1 C 6.0 C 36.8 km/h (5 Bft)
12.11.2006 06:00 8.5 C 90 % 1019.0 hPa 0.2 l/m 20.6 km/h (4 Bft) W 0.00 h 0.0 UV-I 0 W/m 7.1 C 5.5 C 31.2 km/h (5 Bft)
12.11.2006 07:00 8.2 C 89 % 1019.6 hPa 0.0 l/m 16.4 km/h (3 Bft) W 0.00 h 0.0 UV-I 13 W/m 6.5 C 5.6 C 25.4 km/h (4 Bft)
12.11.2006 08:00 8.5 C 85 % 1020.0 hPa 0.0 l/m 15.6 km/h (3 Bft) W 0.00 h 0.5 UV-I 47 W/m 6.2 C 6.0 C 24.6 km/h (4 Bft)
12.11.2006 09:00 8.9 C 82 % 1019.8 hPa 0.0 l/m 14.0 km/h (3 Bft) W 0.00 h 0.6 UV-I 96 W/m 5.9 C 6.8 C 22.7 km/h (4 Bft)
12.11.2006 10:00 9.3 C 78 % 1019.9 hPa 0.0 l/m 12.9 km/h (3 Bft) W 0.00 h 0.7 UV-I 76 W/m 5.7 C 7.5 C 21.4 km/h (4 Bft)
12.11.2006 11:00 8.9 C 82 % 1020.0 hPa 0.8 l/m 15.3 km/h (3 Bft) W 0.00 h 0.7 UV-I 81 W/m 6.1 C 6.6 C 24.4 km/h (4 Bft)
12.11.2006 12:00 8.3 C 88 % 1019.9 hPa 0.6 l/m 17.8 km/h (3 Bft) W 0.48 h 1.2 UV-I 220 W/m 6.3 C 5.5 C 28.1 km/h (4 Bft)
12.11.2006 13:00 9.1 C 82 % 1019.7 hPa 0.2 l/m 16.3 km/h (3 Bft) W 0.05 h 0.9 UV-I 136 W/m 6.2 C 6.6 C 25.5 km/h (4 Bft)
12.11.2006 14:00 7.1 C 89 % 1020.1 hPa 1.2 l/m 14.2 km/h (3 Bft) W 0.00 h 0.5 UV-I 65 W/m 5.4 C 4.6 C 21.8 km/h (4 Bft)
12.11.2006 15:00 7.3 C 89 % 1020.2 hPa 0.0 l/m 13.7 km/h (3 Bft) W 0.00 h 0.5 UV-I 62 W/m 5.5 C 4.8 C 20.6 km/h (4 Bft)
12.11.2006 16:00 7.4 C 86 % 1020.7 hPa 0.0 l/m 6.2 km/h (2 Bft) W 0.00 h 0.0 UV-I 19 W/m 5.3 C 6.6 C 11.0 km/h (2 Bft)
12.11.2006 17:00 6.8 C 88 % 1021.3 hPa 0.0 l/m 4.4 km/h (1 Bft) W-SW 0.00 h 0.0 UV-I 0 W/m 5.0 C 6.3 C 8.9 km/h (2 Bft)
12.11.2006 18:00 6.8 C 88 % 1021.6 hPa 0.0 l/m 2.2 km/h (1 Bft) W-SW 0.00 h 0.0 UV-I 0 W/m 4.9 C 6.7 C 5.1 km/h (1 Bft)
12.11.2006 19:00 7.5 C 84 % 1021.6 hPa 0.0 l/m 7.7 km/h (2 Bft) W-SW 0.00 h 0.0 UV-I 0 W/m 4.9 C 6.3 C 13.7 km/h (3 Bft)
12.11.2006 20:00 8.4 C 76 % 1021.6 hPa 0.0 l/m 14.9 km/h (3 Bft) W 0.00 h 0.0 UV-I 0 W/m 4.5 C 6.1 C 23.8 km/h (4 Bft)
12.11.2006 21:00 8.0 C 79 % 1021.7 hPa 0.0 l/m 14.2 km/h (3 Bft) W 0.00 h 0.0 UV-I 0 W/m 4.5 C 5.6 C 22.0 km/h (4 Bft)
12.11.2006 22:00 7.4 C 77 % 1022.1 hPa 0.0 l/m 9.8 km/h (2 Bft) W 0.00 h 0.0 UV-I 0 W/m 3.7 C 5.7 C 16.2 km/h (3 Bft)
12.11.2006 23:00 7.0 C 78 % 1022.1 hPa 0.0 l/m 7.7 km/h (2 Bft) W 0.00 h 0.0 UV-I 0 W/m 3.4 C 5.6 C 12.3 km/h (3 Bft)
Min-Datum _ 07.11.06 10.11.06 12.11.06 - 06.11.06 - - - - 07.11.06 07.11.06 06.11.06
_ Min-Zeit 03:45 13:08 04:30 - 00:00 - - - - 03:45 09:20 00:00
Minimum _ -1.2 C 57 % 1018.3 hPa - 0.0 km/h (0 Bft) - - - - -1.2 C -2.8 C 0.0 km/h (0 Bft)
Max-Datum _ 08.11.06 06.11.06 10.11.06 11.11.06 12.11.06 - 06.11.06 06.11.06 08.11.06 09.11.06 08.11.06 12.11.06
_ Max-Zeit 12:57 02:52 09:15 14:10 03:40 - 11:44 12:20 12:55 10:39 12:57 03:40
Maximum _ 14.7 C 100 % 1036.3 hPa 1.4 l/m 37.2 km/h
W (5 Bft)
- 0.02 h 2.0 UV-I 519 W/m 10.5 C 14.7 C 59.5 km/h
W (7 Bft)
Durchschnitt _ 5.8 C 90 % 1027.8 hPa #15.0 l/m 3.8 km/h (1 Bft) W #16:07 h 0.9 UV-I 117 W/m 4.1 C 5.4 C 6.6 km/h (2 Bft)
© Kaiko 2006